METAR metoinfo z LKNA (Náměšť nad Oslavou

Orig link LKNA zde

 

LKNA 151000Z 10005KT 050V160 9999 FEW045 SCT250 26/18 Q1016 RMK BLACK

 

 

Permanent link to this article: http://www.airfly.cz/2018/06/26/metar-metoinfo-z-lkna-namest-nad-oslavou/

Napsat komentář